createdAt,value
2023-04-29T00:06:25.540Z,17.40
2023-04-29T00:21:30.322Z,18.10
2023-04-29T00:36:34.710Z,17.90
2023-04-29T00:51:39.376Z,18.00
2023-04-29T01:06:58.220Z,17.90
2023-04-29T01:22:02.901Z,16.80
2023-04-29T01:37:15.600Z,17.00
2023-04-29T01:52:26.046Z,17.20
2023-04-29T02:07:34.551Z,17.80
2023-04-29T02:22:40.121Z,17.20
2023-04-29T02:37:44.925Z,16.90
2023-04-29T02:52:49.441Z,17.00
2023-04-29T03:07:54.835Z,16.90
2023-04-29T03:23:00.805Z,17.00
2023-04-29T03:38:05.497Z,16.30
2023-04-29T03:53:12.333Z,16.90
2023-04-29T04:08:17.137Z,17.10
2023-04-29T04:23:28.542Z,16.60
2023-04-29T04:38:33.139Z,16.10
2023-04-29T04:53:39.913Z,16.40
2023-04-29T05:08:55.711Z,15.80
2023-04-29T05:24:01.694Z,16.70
2023-04-29T05:39:06.307Z,16.10
2023-04-29T05:54:10.819Z,16.90
2023-04-29T06:09:26.318Z,17.10
2023-04-29T06:24:32.110Z,17.10
2023-04-29T06:39:36.827Z,16.10
2023-04-29T06:54:55.254Z,16.50
2023-04-29T07:09:59.665Z,16.50
2023-04-29T07:25:04.551Z,17.00
2023-04-29T07:40:10.181Z,15.90
2023-04-29T07:55:15.685Z,16.30
2023-04-29T08:10:22.390Z,17.00
2023-04-29T08:25:29.135Z,17.30
2023-04-29T08:40:35.710Z,17.30
2023-04-29T08:55:43.453Z,17.50
2023-04-29T09:10:48.655Z,17.20
2023-04-29T09:25:58.559Z,17.30
2023-04-29T09:41:12.051Z,17.20
2023-04-29T09:56:16.476Z,17.70
2023-04-29T10:11:21.667Z,17.70
2023-04-29T10:26:28.524Z,17.60
2023-04-29T10:41:36.873Z,18.00
2023-04-29T10:56:43.535Z,18.00
2023-04-29T11:12:00.387Z,17.20
2023-04-29T11:27:05.859Z,18.20
2023-04-29T11:42:10.218Z,18.70
2023-04-29T11:57:14.984Z,18.00
2023-04-29T12:12:20.546Z,18.70
2023-04-29T12:27:26.578Z,18.70
2023-04-29T12:42:35.033Z,18.70
2023-04-29T12:57:39.628Z,19.30
2023-04-29T13:12:44.012Z,19.30
2023-04-29T13:27:48.664Z,19.60
2023-04-29T13:43:02.203Z,20.20
2023-04-29T13:58:37.826Z,21.40
2023-04-29T14:13:34.772Z,20.90
2023-04-29T14:28:39.116Z,23.80
2023-04-29T14:43:43.608Z,25.40
2023-04-29T14:58:48.016Z,25.80
2023-04-29T15:13:52.542Z,28.30
2023-04-29T15:28:57.013Z,27.30
2023-04-29T15:44:01.479Z,29.30
2023-04-29T15:59:06.456Z,29.20
2023-04-29T16:14:11.035Z,28.00
2023-04-29T16:29:15.437Z,27.80
2023-04-29T16:44:19.861Z,26.90
2023-04-29T16:59:24.474Z,26.90
2023-04-29T17:14:28.960Z,25.70
2023-04-29T17:29:33.395Z,23.50
2023-04-29T17:44:38.030Z,23.60
2023-04-29T17:59:42.652Z,22.40
2023-04-29T18:14:48.695Z,21.30
2023-04-29T18:29:53.257Z,20.50
2023-04-29T18:44:57.821Z,20.10
2023-04-29T19:00:03.625Z,20.00
2023-04-29T19:15:09.158Z,19.60
2023-04-29T19:30:14.154Z,19.50
2023-04-29T19:45:18.688Z,19.10
2023-04-29T20:00:23.389Z,18.90
2023-04-29T20:15:29.150Z,19.00
2023-04-29T20:30:34.017Z,18.60
2023-04-29T20:45:39.004Z,18.70
2023-04-29T21:00:43.465Z,18.40
2023-04-29T21:15:47.957Z,18.60
2023-04-29T21:30:52.423Z,18.30
2023-04-29T21:45:56.987Z,18.30
2023-04-29T22:01:03.492Z,18.20
2023-04-29T22:16:08.800Z,18.20
2023-04-29T22:31:13.346Z,18.00
2023-04-29T22:46:17.801Z,18.10
2023-04-29T23:01:22.418Z,18.00
2023-04-29T23:16:26.999Z,17.90
2023-04-29T23:31:31.504Z,17.90
2023-04-29T23:46:36.029Z,17.80
